Aérodrome :
LOGIN :

S'inscrire | Disclaimer

   EN    FR    IT 

 










Légende :    VFR   VFR Marginal   IFR   IFR Intensif   IFR Très Intensif
Visi : 
Plafond : 
>= 8 km
>= 3000ft
5 à 8 km
1000 à 3000 ft
1500m à 5 km
500 à 1000 ft
800 à 1500m
200 à 500 ft
< 800m
< 200 ft
Symboles :   Orages  Brouillard  Fortes neiges  Fortes précipitations  Vent > 20 kt
SIGMETs :   Divers  Orages  Givrage  Turbulence  Onde Orograph.  Cendres Volcan.







- Altitude de l'aérodrome : 336 ft
- Code IATA : GCI
- Voir les cartes d'approche


EGJB - Guernsey

DERNIER METAR :
  • 202020Z 30016KT 9999 FEW018 SCT026 10/07 Q1009

METARs EXPIRÉS :
  • 201950Z 30019KT 9999 FEW018 SCT026 10/06 Q1007
  • 201920Z 31020G30KT 9999 FEW018 SCT032 10/05 Q1007
  • 201850Z 30021KT 9999 FEW015 SCT032 10/06 Q1006
  • 201820Z 29021G31KT 9000 -RA FEW012 BKN018 BKN032 11/08 Q1006
  • 201750Z 29018KT 9999 FEW012 SCT038 11/08 Q1005

TAF TAF EGJB
Valide du 20 à 18h jusqu'au 21 à 03h UTC


201703Z 2018/2103 28026G40KT 9999 SCT005 BKN010
PROB30
TEMPO 2018/2024 SCT015
PROB30
TEMPO 2022/2101 5000 -RADZ BKN007
BECMG 2101/2103 29014KT 3000 RADZ BKN002
ATIS : +44 1481 238 957
Pas de NOTAMs connus pour ce terrain.
1 SIGMET publié pour la FIR Brest (LFRR) :
 
Turbulence forte
LFRR SIGMET 5 VALID 201800/202200 LFPW
LFRR BREST FIR/UIR SEV TURB FCST SE OF LINE N4615 W00130 - N4415 W00445 SFC/FL040 STNR NC=



MET'MAP, la Météo Aéronautique d'un coup d'oeil ! - Copyright ORBIFLY Décembre 2007 - Disclaimer

ORBIFLY MET'MAP TEAM :

Programmation & Développement : Alexandra Zaïnal
Conception & Développement : Baudouin d'Aumeries
Co-Programmation & Développement : Marc-Olivier Méhu
Soutien technique & logistique : Manuel Goepfert

Contact : metmap@orbifly.com




SOURCES & CREDITS :

   NOAA